sensor_id;sensor_type;location;lat;lon;timestamp;P1;durP1;ratioP1;P2;durP2;ratioP2
59846;SDS011;45728;48.788;2.302;2024-03-25T00:01:13;11.55;;;6.43;;
59846;SDS011;45728;48.788;2.302;2024-03-25T00:03:39;12.65;;;6.22;;
59846;SDS011;45728;48.788;2.302;2024-03-25T00:06:06;9.73;;;5.60;;
59846;SDS011;45728;48.788;2.302;2024-03-25T00:08:32;10.27;;;6.07;;
59846;SDS011;45728;48.788;2.302;2024-03-25T00:10:58;11.90;;;6.43;;
59846;SDS011;45728;48.788;2.302;2024-03-25T00:13:24;14.75;;;6.07;;
59846;SDS011;45728;48.788;2.302;2024-03-25T00:15:50;11.80;;;5.60;;
59846;SDS011;45728;48.788;2.302;2024-03-25T00:18:16;10.18;;;5.53;;
59846;SDS011;45728;48.788;2.302;2024-03-25T00:20:43;11.25;;;6.10;;
59846;SDS011;45728;48.788;2.302;2024-03-25T00:23:09;13.27;;;6.78;;
59846;SDS011;45728;48.788;2.302;2024-03-25T00:25:35;10.35;;;6.30;;
59846;SDS011;45728;48.788;2.302;2024-03-25T00:28:01;13.43;;;6.60;;
59846;SDS011;45728;48.788;2.302;2024-03-25T00:30:27;10.38;;;3.90;;
59846;SDS011;45728;48.788;2.302;2024-03-25T00:32:54;11.02;;;6.85;;
59846;SDS011;45728;48.788;2.302;2024-03-25T00:35:20;12.15;;;5.97;;
59846;SDS011;45728;48.788;2.302;2024-03-25T00:37:46;11.52;;;6.47;;
59846;SDS011;45728;48.788;2.302;2024-03-25T00:40:12;13.90;;;7.10;;
59846;SDS011;45728;48.788;2.302;2024-03-25T00:42:38;14.77;;;6.43;;
59846;SDS011;45728;48.788;2.302;2024-03-25T00:45:04;15.27;;;6.88;;
59846;SDS011;45728;48.788;2.302;2024-03-25T00:47:31;14.02;;;6.78;;
59846;SDS011;45728;48.788;2.302;2024-03-25T00:49:58;12.43;;;6.13;;
59846;SDS011;45728;48.788;2.302;2024-03-25T00:52:24;13.30;;;6.90;;
59846;SDS011;45728;48.788;2.302;2024-03-25T00:54:50;12.13;;;6.85;;
59846;SDS011;45728;48.788;2.302;2024-03-25T00:57:16;9.40;;;4.05;;
59846;SDS011;45728;48.788;2.302;2024-03-25T00:59:43;12.50;;;6.50;;
59846;SDS011;45728;48.788;2.302;2024-03-25T01:02:09;10.98;;;7.03;;
59846;SDS011;45728;48.788;2.302;2024-03-25T01:04:36;14.85;;;6.82;;
59846;SDS011;45728;48.788;2.302;2024-03-25T01:07:02;14.40;;;7.03;;
59846;SDS011;45728;48.788;2.302;2024-03-25T01:09:28;13.32;;;6.93;;
59846;SDS011;45728;48.788;2.302;2024-03-25T01:11:55;10.35;;;5.88;;
59846;SDS011;45728;48.788;2.302;2024-03-25T01:14:21;13.63;;;6.57;;
59846;SDS011;45728;48.788;2.302;2024-03-25T01:16:47;11.88;;;6.75;;
59846;SDS011;45728;48.788;2.302;2024-03-25T01:19:13;12.68;;;6.75;;
59846;SDS011;45728;48.788;2.302;2024-03-25T01:21:39;13.68;;;6.82;;
59846;SDS011;45728;48.788;2.302;2024-03-25T01:24:05;10.55;;;6.65;;
59846;SDS011;45728;48.788;2.302;2024-03-25T01:26:31;13.40;;;7.43;;
59846;SDS011;45728;48.788;2.302;2024-03-25T01:28:57;14.80;;;7.93;;
59846;SDS011;45728;48.788;2.302;2024-03-25T01:31:23;13.82;;;7.32;;
59846;SDS011;45728;48.788;2.302;2024-03-25T01:33:49;10.77;;;6.28;;
59846;SDS011;45728;48.788;2.302;2024-03-25T01:36:16;15.43;;;6.75;;
59846;SDS011;45728;48.788;2.302;2024-03-25T01:38:44;11.43;;;7.15;;
59846;SDS011;45728;48.788;2.302;2024-03-25T01:41:10;14.45;;;6.80;;
59846;SDS011;45728;48.788;2.302;2024-03-25T01:43:37;12.50;;;7.32;;
59846;SDS011;45728;48.788;2.302;2024-03-25T01:46:04;12.90;;;7.43;;
59846;SDS011;45728;48.788;2.302;2024-03-25T01:48:31;10.43;;;6.70;;
59846;SDS011;45728;48.788;2.302;2024-03-25T01:50:57;12.27;;;7.53;;
59846;SDS011;45728;48.788;2.302;2024-03-25T01:53:25;14.75;;;7.10;;
59846;SDS011;45728;48.788;2.302;2024-03-25T01:55:56;15.57;;;8.45;;
59846;SDS011;45728;48.788;2.302;2024-03-25T01:58:24;11.40;;;7.07;;
59846;SDS011;45728;48.788;2.302;2024-03-25T02:00:51;14.07;;;7.22;;
59846;SDS011;45728;48.788;2.302;2024-03-25T02:03:20;13.10;;;7.47;;
59846;SDS011;45728;48.788;2.302;2024-03-25T02:05:47;14.45;;;7.35;;
59846;SDS011;45728;48.788;2.302;2024-03-25T02:08:18;15.55;;;7.63;;
59846;SDS011;45728;48.788;2.302;2024-03-25T02:10:45;9.60;;;4.57;;
59846;SDS011;45728;48.788;2.302;2024-03-25T02:13:12;11.60;;;7.10;;
59846;SDS011;45728;48.788;2.302;2024-03-25T02:15:38;11.98;;;7.65;;
59846;SDS011;45728;48.788;2.302;2024-03-25T02:18:06;11.70;;;7.32;;
59846;SDS011;45728;48.788;2.302;2024-03-25T02:20:32;11.13;;;7.43;;
59846;SDS011;45728;48.788;2.302;2024-03-25T02:22:58;11.35;;;6.53;;
59846;SDS011;45728;48.788;2.302;2024-03-25T02:25:24;11.57;;;7.15;;
59846;SDS011;45728;48.788;2.302;2024-03-25T02:27:51;14.98;;;7.32;;
59846;SDS011;45728;48.788;2.302;2024-03-25T02:30:17;13.60;;;7.93;;
59846;SDS011;45728;48.788;2.302;2024-03-25T02:32:43;12.32;;;7.30;;
59846;SDS011;45728;48.788;2.302;2024-03-25T02:35:10;13.13;;;7.22;;
59846;SDS011;45728;48.788;2.302;2024-03-25T02:37:40;10.32;;;4.75;;
59846;SDS011;45728;48.788;2.302;2024-03-25T02:40:07;13.20;;;7.57;;
59846;SDS011;45728;48.788;2.302;2024-03-25T02:42:37;14.10;;;8.38;;
59846;SDS011;45728;48.788;2.302;2024-03-25T02:45:05;10.48;;;4.75;;
59846;SDS011;45728;48.788;2.302;2024-03-25T02:47:32;12.00;;;5.43;;
59846;SDS011;45728;48.788;2.302;2024-03-25T02:49:58;15.55;;;8.35;;
59846;SDS011;45728;48.788;2.302;2024-03-25T02:52:24;15.38;;;5.63;;
59846;SDS011;45728;48.788;2.302;2024-03-25T02:54:50;16.60;;;8.05;;
59846;SDS011;45728;48.788;2.302;2024-03-25T02:57:16;11.45;;;4.93;;
59846;SDS011;45728;48.788;2.302;2024-03-25T02:59:42;13.50;;;8.73;;
59846;SDS011;45728;48.788;2.302;2024-03-25T03:02:08;12.63;;;8.48;;
59846;SDS011;45728;48.788;2.302;2024-03-25T03:04:34;15.32;;;8.65;;
59846;SDS011;45728;48.788;2.302;2024-03-25T03:07:01;14.38;;;8.15;;
59846;SDS011;45728;48.788;2.302;2024-03-25T03:09:27;9.60;;;4.75;;
59846;SDS011;45728;48.788;2.302;2024-03-25T03:11:53;16.48;;;8.45;;
59846;SDS011;45728;48.788;2.302;2024-03-25T03:14:19;16.73;;;8.23;;
59846;SDS011;45728;48.788;2.302;2024-03-25T03:16:45;12.55;;;7.38;;
59846;SDS011;45728;48.788;2.302;2024-03-25T03:19:11;16.50;;;7.78;;
59846;SDS011;45728;48.788;2.302;2024-03-25T03:21:37;13.23;;;7.65;;
59846;SDS011;45728;48.788;2.302;2024-03-25T03:24:04;13.80;;;7.85;;
59846;SDS011;45728;48.788;2.302;2024-03-25T03:26:30;11.68;;;5.72;;
59846;SDS011;45728;48.788;2.302;2024-03-25T03:28:57;14.55;;;8.70;;
59846;SDS011;45728;48.788;2.302;2024-03-25T03:31:23;13.48;;;8.95;;
59846;SDS011;45728;48.788;2.302;2024-03-25T03:33:50;16.02;;;8.50;;
59846;SDS011;45728;48.788;2.302;2024-03-25T03:36:20;15.82;;;9.05;;
59846;SDS011;45728;48.788;2.302;2024-03-25T03:38:50;13.20;;;7.93;;
59846;SDS011;45728;48.788;2.302;2024-03-25T03:41:16;13.30;;;7.65;;
59846;SDS011;45728;48.788;2.302;2024-03-25T03:43:43;13.98;;;7.97;;
59846;SDS011;45728;48.788;2.302;2024-03-25T03:46:09;16.17;;;9.27;;
59846;SDS011;45728;48.788;2.302;2024-03-25T03:48:36;15.68;;;8.55;;
59846;SDS011;45728;48.788;2.302;2024-03-25T03:51:06;13.57;;;5.40;;
59846;SDS011;45728;48.788;2.302;2024-03-25T03:56:00;14.10;;;8.07;;
59846;SDS011;45728;48.788;2.302;2024-03-25T03:58:33;14.38;;;8.32;;
59846;SDS011;45728;48.788;2.302;2024-03-25T04:00:59;16.98;;;9.07;;
59846;SDS011;45728;48.788;2.302;2024-03-25T04:03:26;14.52;;;8.80;;
59846;SDS011;45728;48.788;2.302;2024-03-25T04:05:52;11.82;;;8.18;;
59846;SDS011;45728;48.788;2.302;2024-03-25T04:08:18;14.32;;;6.45;;
59846;SDS011;45728;48.788;2.302;2024-03-25T04:10:44;10.73;;;4.97;;
59846;SDS011;45728;48.788;2.302;2024-03-25T04:13:11;12.43;;;8.38;;
59846;SDS011;45728;48.788;2.302;2024-03-25T04:15:38;15.95;;;8.57;;
59846;SDS011;45728;48.788;2.302;2024-03-25T04:18:06;11.65;;;8.68;;
59846;SDS011;45728;48.788;2.302;2024-03-25T04:20:36;13.05;;;8.90;;
59846;SDS011;45728;48.788;2.302;2024-03-25T04:23:03;11.48;;;5.05;;
59846;SDS011;45728;48.788;2.302;2024-03-25T04:25:30;11.98;;;8.55;;
59846;SDS011;45728;48.788;2.302;2024-03-25T04:27:56;17.38;;;9.15;;
59846;SDS011;45728;48.788;2.302;2024-03-25T04:30:22;11.88;;;8.75;;
59846;SDS011;45728;48.788;2.302;2024-03-25T04:32:48;15.23;;;8.75;;
59846;SDS011;45728;48.788;2.302;2024-03-25T04:35:14;10.55;;;4.93;;
59846;SDS011;45728;48.788;2.302;2024-03-25T04:37:40;12.32;;;8.50;;
59846;SDS011;45728;48.788;2.302;2024-03-25T04:40:07;14.32;;;8.73;;
59846;SDS011;45728;48.788;2.302;2024-03-25T04:42:33;14.70;;;9.00;;
59846;SDS011;45728;48.788;2.302;2024-03-25T04:44:59;15.05;;;10.35;;
59846;SDS011;45728;48.788;2.302;2024-03-25T04:47:25;12.25;;;6.22;;
59846;SDS011;45728;48.788;2.302;2024-03-25T04:49:52;11.77;;;5.93;;
59846;SDS011;45728;48.788;2.302;2024-03-25T04:52:18;19.17;;;10.65;;
59846;SDS011;45728;48.788;2.302;2024-03-25T04:54:48;13.70;;;5.93;;
59846;SDS011;45728;48.788;2.302;2024-03-25T04:57:15;16.17;;;9.80;;
59846;SDS011;45728;48.788;2.302;2024-03-25T04:59:41;17.70;;;10.40;;
59846;SDS011;45728;48.788;2.302;2024-03-25T05:02:07;14.85;;;9.88;;
59846;SDS011;45728;48.788;2.302;2024-03-25T05:04:33;14.13;;;10.52;;
59846;SDS011;45728;48.788;2.302;2024-03-25T05:06:59;17.75;;;10.52;;
59846;SDS011;45728;48.788;2.302;2024-03-25T05:09:26;15.50;;;9.88;;
59846;SDS011;45728;48.788;2.302;2024-03-25T05:11:52;14.90;;;10.60;;
59846;SDS011;45728;48.788;2.302;2024-03-25T05:14:18;14.40;;;4.90;;
59846;SDS011;45728;48.788;2.302;2024-03-25T05:16:44;11.65;;;5.82;;
59846;SDS011;45728;48.788;2.302;2024-03-25T05:19:10;11.95;;;5.65;;
59846;SDS011;45728;48.788;2.302;2024-03-25T05:21:36;18.67;;;10.23;;
59846;SDS011;45728;48.788;2.302;2024-03-25T05:24:02;14.75;;;10.40;;
59846;SDS011;45728;48.788;2.302;2024-03-25T05:26:28;15.75;;;10.52;;
59846;SDS011;45728;48.788;2.302;2024-03-25T05:28:55;11.25;;;5.50;;
59846;SDS011;45728;48.788;2.302;2024-03-25T05:31:22;13.68;;;9.52;;
59846;SDS011;45728;48.788;2.302;2024-03-25T05:33:48;16.45;;;10.60;;
59846;SDS011;45728;48.788;2.302;2024-03-25T05:36:14;17.27;;;7.75;;
59846;SDS011;45728;48.788;2.302;2024-03-25T05:38:40;18.27;;;9.95;;
59846;SDS011;45728;48.788;2.302;2024-03-25T05:41:10;17.50;;;10.48;;
59846;SDS011;45728;48.788;2.302;2024-03-25T05:43:36;20.75;;;10.82;;
59846;SDS011;45728;48.788;2.302;2024-03-25T05:46:03;14.90;;;6.05;;
59846;SDS011;45728;48.788;2.302;2024-03-25T05:48:29;18.73;;;10.70;;
59846;SDS011;45728;48.788;2.302;2024-03-25T05:51:02;16.92;;;10.48;;
59846;SDS011;45728;48.788;2.302;2024-03-25T05:53:35;15.35;;;6.88;;
59846;SDS011;45728;48.788;2.302;2024-03-25T05:56:01;12.88;;;9.80;;
59846;SDS011;45728;48.788;2.302;2024-03-25T05:58:27;16.83;;;9.85;;
59846;SDS011;45728;48.788;2.302;2024-03-25T06:00:53;21.13;;;10.52;;
59846;SDS011;45728;48.788;2.302;2024-03-25T06:03:19;22.02;;;10.10;;
59846;SDS011;45728;48.788;2.302;2024-03-25T06:05:46;12.40;;;5.85;;
59846;SDS011;45728;48.788;2.302;2024-03-25T06:08:12;17.40;;;10.05;;
59846;SDS011;45728;48.788;2.302;2024-03-25T06:10:45;22.42;;;9.90;;
59846;SDS011;45728;48.788;2.302;2024-03-25T06:13:11;14.18;;;5.15;;
59846;SDS011;45728;48.788;2.302;2024-03-25T06:15:37;16.55;;;5.28;;
59846;SDS011;45728;48.788;2.302;2024-03-25T06:18:03;16.35;;;9.27;;
59846;SDS011;45728;48.788;2.302;2024-03-25T06:20:30;14.50;;;9.43;;
59846;SDS011;45728;48.788;2.302;2024-03-25T06:22:56;15.63;;;8.05;;
59846;SDS011;45728;48.788;2.302;2024-03-25T06:25:22;14.23;;;5.00;;
59846;SDS011;45728;48.788;2.302;2024-03-25T06:27:48;12.15;;;8.00;;
59846;SDS011;45728;48.788;2.302;2024-03-25T06:30:14;12.70;;;5.55;;
59846;SDS011;45728;48.788;2.302;2024-03-25T06:32:58;15.48;;;8.90;;
59846;SDS011;45728;48.788;2.302;2024-03-25T06:35:43;15.55;;;8.38;;
59846;SDS011;45728;48.788;2.302;2024-03-25T06:38:10;15.55;;;8.50;;
59846;SDS011;45728;48.788;2.302;2024-03-25T06:40:37;13.23;;;8.48;;
59846;SDS011;45728;48.788;2.302;2024-03-25T06:43:04;10.65;;;5.05;;
59846;SDS011;45728;48.788;2.302;2024-03-25T06:45:30;14.82;;;7.93;;
59846;SDS011;45728;48.788;2.302;2024-03-25T06:47:57;13.85;;;8.20;;
59846;SDS011;45728;48.788;2.302;2024-03-25T06:50:23;9.20;;;4.70;;
59846;SDS011;45728;48.788;2.302;2024-03-25T06:52:50;15.23;;;8.57;;
59846;SDS011;45728;48.788;2.302;2024-03-25T06:55:16;15.77;;;8.27;;
59846;SDS011;45728;48.788;2.302;2024-03-25T07:00:28;13.18;;;5.30;;
59846;SDS011;45728;48.788;2.302;2024-03-25T07:02:55;13.05;;;8.23;;
59846;SDS011;45728;48.788;2.302;2024-03-25T07:05:21;14.93;;;8.02;;
59846;SDS011;45728;48.788;2.302;2024-03-25T07:07:47;14.85;;;8.82;;
59846;SDS011;45728;48.788;2.302;2024-03-25T07:10:14;16.00;;;8.88;;
59846;SDS011;45728;48.788;2.302;2024-03-25T07:12:40;14.15;;;8.30;;
59846;SDS011;45728;48.788;2.302;2024-03-25T07:15:06;13.05;;;8.57;;
59846;SDS011;45728;48.788;2.302;2024-03-25T07:17:32;16.58;;;8.80;;
59846;SDS011;45728;48.788;2.302;2024-03-25T07:19:58;18.08;;;8.80;;
59846;SDS011;45728;48.788;2.302;2024-03-25T07:22:24;14.55;;;8.82;;
59846;SDS011;45728;48.788;2.302;2024-03-25T07:24:50;16.20;;;9.30;;
59846;SDS011;45728;48.788;2.302;2024-03-25T07:27:21;18.67;;;8.90;;
59846;SDS011;45728;48.788;2.302;2024-03-25T07:29:47;15.48;;;8.43;;
59846;SDS011;45728;48.788;2.302;2024-03-25T07:32:13;15.48;;;8.63;;
59846;SDS011;45728;48.788;2.302;2024-03-25T07:34:39;16.67;;;9.13;;
59846;SDS011;45728;48.788;2.302;2024-03-25T07:37:05;14.95;;;8.43;;
59846;SDS011;45728;48.788;2.302;2024-03-25T07:39:31;15.98;;;8.45;;
59846;SDS011;45728;48.788;2.302;2024-03-25T07:41:57;12.77;;;8.23;;
59846;SDS011;45728;48.788;2.302;2024-03-25T07:44:24;14.95;;;8.63;;
59846;SDS011;45728;48.788;2.302;2024-03-25T07:46:50;14.70;;;8.38;;
59846;SDS011;45728;48.788;2.302;2024-03-25T07:49:17;16.08;;;8.75;;
59846;SDS011;45728;48.788;2.302;2024-03-25T07:51:43;13.40;;;8.38;;
59846;SDS011;45728;48.788;2.302;2024-03-25T07:54:09;11.82;;;7.40;;
59846;SDS011;45728;48.788;2.302;2024-03-25T07:56:37;12.57;;;7.95;;
59846;SDS011;45728;48.788;2.302;2024-03-25T07:59:03;13.07;;;8.43;;
59846;SDS011;45728;48.788;2.302;2024-03-25T08:01:29;13.93;;;8.25;;
59846;SDS011;45728;48.788;2.302;2024-03-25T08:03:55;12.85;;;8.23;;
59846;SDS011;45728;48.788;2.302;2024-03-25T08:06:21;13.63;;;8.10;;
59846;SDS011;45728;48.788;2.302;2024-03-25T08:08:48;13.70;;;8.05;;
59846;SDS011;45728;48.788;2.302;2024-03-25T08:11:14;18.48;;;9.18;;
59846;SDS011;45728;48.788;2.302;2024-03-25T08:13:40;15.68;;;7.82;;
59846;SDS011;45728;48.788;2.302;2024-03-25T08:16:06;13.90;;;8.38;;
59846;SDS011;45728;48.788;2.302;2024-03-25T08:18:33;13.80;;;7.70;;
59846;SDS011;45728;48.788;2.302;2024-03-25T08:20:59;12.43;;;8.02;;
59846;SDS011;45728;48.788;2.302;2024-03-25T08:23:25;16.08;;;8.18;;
59846;SDS011;45728;48.788;2.302;2024-03-25T08:25:51;12.43;;;7.60;;
59846;SDS011;45728;48.788;2.302;2024-03-25T08:28:17;14.10;;;7.47;;
59846;SDS011;45728;48.788;2.302;2024-03-25T08:30:43;12.63;;;7.18;;
59846;SDS011;45728;48.788;2.302;2024-03-25T08:33:09;12.65;;;7.07;;
59846;SDS011;45728;48.788;2.302;2024-03-25T08:35:36;14.07;;;7.03;;
59846;SDS011;45728;48.788;2.302;2024-03-25T08:38:03;14.00;;;6.20;;
59846;SDS011;45728;48.788;2.302;2024-03-25T08:40:29;12.15;;;6.25;;
59846;SDS011;45728;48.788;2.302;2024-03-25T08:42:55;11.70;;;6.22;;
59846;SDS011;45728;48.788;2.302;2024-03-25T08:45:40;10.85;;;6.60;;
59846;SDS011;45728;48.788;2.302;2024-03-25T08:48:06;12.07;;;6.85;;
59846;SDS011;45728;48.788;2.302;2024-03-25T08:50:32;13.43;;;5.68;;
59846;SDS011;45728;48.788;2.302;2024-03-25T08:52:58;18.00;;;6.53;;
59846;SDS011;45728;48.788;2.302;2024-03-25T08:55:24;13.80;;;6.20;;
59846;SDS011;45728;48.788;2.302;2024-03-25T08:57:50;11.05;;;6.28;;
59846;SDS011;45728;48.788;2.302;2024-03-25T09:00:17;9.05;;;5.63;;
59846;SDS011;45728;48.788;2.302;2024-03-25T09:02:43;10.90;;;5.30;;
59846;SDS011;45728;48.788;2.302;2024-03-25T09:05:10;13.57;;;5.68;;
59846;SDS011;45728;48.788;2.302;2024-03-25T09:07:36;12.23;;;5.50;;
59846;SDS011;45728;48.788;2.302;2024-03-25T09:10:02;13.82;;;5.30;;
59846;SDS011;45728;48.788;2.302;2024-03-25T09:12:47;11.50;;;5.13;;
59846;SDS011;45728;48.788;2.302;2024-03-25T09:15:13;11.70;;;5.32;;
59846;SDS011;45728;48.788;2.302;2024-03-25T09:17:40;8.27;;;4.40;;
59846;SDS011;45728;48.788;2.302;2024-03-25T09:20:06;11.00;;;4.95;;
59846;SDS011;45728;48.788;2.302;2024-03-25T09:22:44;7.15;;;3.97;;
59846;SDS011;45728;48.788;2.302;2024-03-25T09:25:10;10.40;;;4.03;;
59846;SDS011;45728;48.788;2.302;2024-03-25T09:27:37;7.78;;;4.32;;
59846;SDS011;45728;48.788;2.302;2024-03-25T09:30:03;8.18;;;3.63;;
59846;SDS011;45728;48.788;2.302;2024-03-25T09:32:29;9.25;;;3.72;;
59846;SDS011;45728;48.788;2.302;2024-03-25T09:34:58;7.10;;;3.45;;
59846;SDS011;45728;48.788;2.302;2024-03-25T09:37:24;6.43;;;3.30;;
59846;SDS011;45728;48.788;2.302;2024-03-25T09:39:50;7.45;;;3.40;;
59846;SDS011;45728;48.788;2.302;2024-03-25T09:42:19;5.45;;;3.28;;
59846;SDS011;45728;48.788;2.302;2024-03-25T09:44:56;6.45;;;3.22;;
59846;SDS011;45728;48.788;2.302;2024-03-25T09:47:22;6.82;;;3.08;;
59846;SDS011;45728;48.788;2.302;2024-03-25T09:49:49;8.55;;;3.35;;
59846;SDS011;45728;48.788;2.302;2024-03-25T09:52:15;5.72;;;3.03;;
59846;SDS011;45728;48.788;2.302;2024-03-25T09:54:42;8.20;;;2.67;;
59846;SDS011;45728;48.788;2.302;2024-03-25T09:57:08;7.15;;;2.97;;
59846;SDS011;45728;48.788;2.302;2024-03-25T09:59:34;6.43;;;2.78;;
59846;SDS011;45728;48.788;2.302;2024-03-25T10:02:01;7.68;;;2.78;;
59846;SDS011;45728;48.788;2.302;2024-03-25T10:04:29;9.70;;;2.92;;
59846;SDS011;45728;48.788;2.302;2024-03-25T10:06:55;7.35;;;2.92;;
59846;SDS011;45728;48.788;2.302;2024-03-25T10:09:21;10.32;;;3.10;;
59846;SDS011;45728;48.788;2.302;2024-03-25T10:11:48;6.93;;;2.42;;
59846;SDS011;45728;48.788;2.302;2024-03-25T10:14:18;4.18;;;2.10;;
59846;SDS011;45728;48.788;2.302;2024-03-25T10:16:44;6.47;;;3.22;;
59846;SDS011;45728;48.788;2.302;2024-03-25T10:19:10;5.28;;;2.53;;
59846;SDS011;45728;48.788;2.302;2024-03-25T10:21:36;6.30;;;2.42;;
59846;SDS011;45728;48.788;2.302;2024-03-25T10:24:05;6.78;;;3.05;;
59846;SDS011;45728;48.788;2.302;2024-03-25T10:26:32;6.90;;;2.65;;
59846;SDS011;45728;48.788;2.302;2024-03-25T10:29:01;8.90;;;3.67;;
59846;SDS011;45728;48.788;2.302;2024-03-25T10:31:30;4.75;;;2.90;;
59846;SDS011;45728;48.788;2.302;2024-03-25T10:33:56;5.07;;;2.75;;
59846;SDS011;45728;48.788;2.302;2024-03-25T10:36:22;4.93;;;2.30;;
59846;SDS011;45728;48.788;2.302;2024-03-25T10:38:54;4.55;;;2.25;;
59846;SDS011;45728;48.788;2.302;2024-03-25T10:41:22;8.25;;;3.60;;
59846;SDS011;45728;48.788;2.302;2024-03-25T10:43:48;6.13;;;3.47;;
59846;SDS011;45728;48.788;2.302;2024-03-25T10:46:16;4.25;;;2.33;;
59846;SDS011;45728;48.788;2.302;2024-03-25T10:51:28;6.50;;;2.75;;
59846;SDS011;45728;48.788;2.302;2024-03-25T10:53:56;3.38;;;1.80;;
59846;SDS011;45728;48.788;2.302;2024-03-25T10:56:24;7.05;;;2.20;;
59846;SDS011;45728;48.788;2.302;2024-03-25T10:58:50;5.00;;;2.78;;
59846;SDS011;45728;48.788;2.302;2024-03-25T11:01:18;4.72;;;2.70;;
59846;SDS011;45728;48.788;2.302;2024-03-25T11:03:45;7.03;;;2.55;;
59846;SDS011;45728;48.788;2.302;2024-03-25T11:06:13;5.53;;;2.50;;
59846;SDS011;45728;48.788;2.302;2024-03-25T11:08:40;4.50;;;2.35;;
59846;SDS011;45728;48.788;2.302;2024-03-25T11:11:07;7.47;;;2.78;;
59846;SDS011;45728;48.788;2.302;2024-03-25T11:13:33;7.95;;;2.40;;
59846;SDS011;45728;48.788;2.302;2024-03-25T11:16:00;5.57;;;2.70;;
59846;SDS011;45728;48.788;2.302;2024-03-25T11:18:26;6.30;;;2.22;;
59846;SDS011;45728;48.788;2.302;2024-03-25T11:21:01;4.80;;;2.38;;
59846;SDS011;45728;48.788;2.302;2024-03-25T11:23:35;4.82;;;2.45;;
59846;SDS011;45728;48.788;2.302;2024-03-25T11:26:20;3.67;;;1.98;;
59846;SDS011;45728;48.788;2.302;2024-03-25T11:28:48;3.80;;;2.10;;
59846;SDS011;45728;48.788;2.302;2024-03-25T11:31:14;8.40;;;2.28;;
59846;SDS011;45728;48.788;2.302;2024-03-25T11:33:42;3.53;;;1.92;;
59846;SDS011;45728;48.788;2.302;2024-03-25T11:36:09;5.38;;;1.98;;
59846;SDS011;45728;48.788;2.302;2024-03-25T11:38:35;3.65;;;2.10;;
59846;SDS011;45728;48.788;2.302;2024-03-25T11:41:04;2.63;;;1.65;;
59846;SDS011;45728;48.788;2.302;2024-03-25T11:43:30;3.45;;;2.17;;
59846;SDS011;45728;48.788;2.302;2024-03-25T11:45:58;7.47;;;1.98;;
59846;SDS011;45728;48.788;2.302;2024-03-25T11:48:24;5.10;;;2.63;;
59846;SDS011;45728;48.788;2.302;2024-03-25T11:50:50;3.83;;;2.05;;
59846;SDS011;45728;48.788;2.302;2024-03-25T11:53:16;6.82;;;2.42;;
59846;SDS011;45728;48.788;2.302;2024-03-25T11:55:46;5.90;;;1.98;;
59846;SDS011;45728;48.788;2.302;2024-03-25T11:58:13;5.45;;;2.30;;
59846;SDS011;45728;48.788;2.302;2024-03-25T12:00:46;3.83;;;2.08;;
59846;SDS011;45728;48.788;2.302;2024-03-25T12:03:17;3.40;;;1.88;;
59846;SDS011;45728;48.788;2.302;2024-03-25T12:05:46;5.85;;;2.20;;
59846;SDS011;45728;48.788;2.302;2024-03-25T12:08:12;4.78;;;2.20;;
59846;SDS011;45728;48.788;2.302;2024-03-25T12:10:38;11.50;;;2.03;;
59846;SDS011;45728;48.788;2.302;2024-03-25T12:13:24;4.05;;;1.90;;
59846;SDS011;45728;48.788;2.302;2024-03-25T12:15:51;3.55;;;1.83;;
59846;SDS011;45728;48.788;2.302;2024-03-25T12:18:18;6.05;;;2.65;;
59846;SDS011;45728;48.788;2.302;2024-03-25T12:20:47;7.47;;;2.95;;
59846;SDS011;45728;48.788;2.302;2024-03-25T12:23:14;5.63;;;2.55;;
59846;SDS011;45728;48.788;2.302;2024-03-25T12:25:40;4.90;;;2.22;;
59846;SDS011;45728;48.788;2.302;2024-03-25T12:28:13;4.07;;;2.20;;
59846;SDS011;45728;48.788;2.302;2024-03-25T12:30:55;4.32;;;1.90;;
59846;SDS011;45728;48.788;2.302;2024-03-25T12:33:22;3.40;;;1.67;;
59846;SDS011;45728;48.788;2.302;2024-03-25T12:35:49;4.78;;;2.15;;
59846;SDS011;45728;48.788;2.302;2024-03-25T12:38:29;5.30;;;1.92;;
59846;SDS011;45728;48.788;2.302;2024-03-25T12:43:43;4.97;;;1.80;;
59846;SDS011;45728;48.788;2.302;2024-03-25T12:46:10;3.00;;;1.65;;
59846;SDS011;45728;48.788;2.302;2024-03-25T12:48:37;3.75;;;1.40;;
59846;SDS011;45728;48.788;2.302;2024-03-25T12:51:04;5.28;;;1.67;;
59846;SDS011;45728;48.788;2.302;2024-03-25T12:53:30;5.25;;;1.83;;
59846;SDS011;45728;48.788;2.302;2024-03-25T12:55:56;3.55;;;1.30;;
59846;SDS011;45728;48.788;2.302;2024-03-25T12:58:22;3.50;;;1.30;;
59846;SDS011;45728;48.788;2.302;2024-03-25T13:00:48;2.80;;;1.50;;
59846;SDS011;45728;48.788;2.302;2024-03-25T13:03:15;5.03;;;1.73;;
59846;SDS011;45728;48.788;2.302;2024-03-25T13:05:42;3.13;;;1.30;;
59846;SDS011;45728;48.788;2.302;2024-03-25T13:08:09;4.15;;;1.98;;
59846;SDS011;45728;48.788;2.302;2024-03-25T13:10:35;3.80;;;1.25;;
59846;SDS011;45728;48.788;2.302;2024-03-25T13:13:01;2.53;;;1.58;;
59846;SDS011;45728;48.788;2.302;2024-03-25T13:15:28;2.80;;;1.63;;
59846;SDS011;45728;48.788;2.302;2024-03-25T13:17:54;3.83;;;1.50;;
59846;SDS011;45728;48.788;2.302;2024-03-25T13:20:20;2.95;;;1.13;;
59846;SDS011;45728;48.788;2.302;2024-03-25T13:22:46;3.65;;;1.45;;
59846;SDS011;45728;48.788;2.302;2024-03-25T13:25:14;4.90;;;2.03;;
59846;SDS011;45728;48.788;2.302;2024-03-25T13:27:40;3.15;;;1.70;;
59846;SDS011;45728;48.788;2.302;2024-03-25T13:30:06;2.97;;;1.75;;
59846;SDS011;45728;48.788;2.302;2024-03-25T13:32:32;7.88;;;2.08;;
59846;SDS011;45728;48.788;2.302;2024-03-25T13:34:58;3.33;;;1.60;;
59846;SDS011;45728;48.788;2.302;2024-03-25T13:37:25;2.70;;;1.50;;
59846;SDS011;45728;48.788;2.302;2024-03-25T13:39:51;6.13;;;1.40;;
59846;SDS011;45728;48.788;2.302;2024-03-25T13:42:18;1.83;;;1.17;;
59846;SDS011;45728;48.788;2.302;2024-03-25T13:44:44;3.65;;;1.70;;
59846;SDS011;45728;48.788;2.302;2024-03-25T13:47:10;4.70;;;1.80;;
59846;SDS011;45728;48.788;2.302;2024-03-25T13:49:36;3.95;;;1.90;;
59846;SDS011;45728;48.788;2.302;2024-03-25T13:52:03;4.63;;;1.83;;
59846;SDS011;45728;48.788;2.302;2024-03-25T13:54:30;2.70;;;1.50;;
59846;SDS011;45728;48.788;2.302;2024-03-25T13:56:56;3.25;;;1.52;;
59846;SDS011;45728;48.788;2.302;2024-03-25T13:59:23;4.32;;;1.90;;
59846;SDS011;45728;48.788;2.302;2024-03-25T14:01:49;11.32;;;1.83;;
59846;SDS011;45728;48.788;2.302;2024-03-25T14:04:17;6.38;;;1.77;;
59846;SDS011;45728;48.788;2.302;2024-03-25T14:06:43;5.35;;;1.42;;
59846;SDS011;45728;48.788;2.302;2024-03-25T14:09:23;5.03;;;1.70;;
59846;SDS011;45728;48.788;2.302;2024-03-25T14:11:50;2.30;;;1.67;;
59846;SDS011;45728;48.788;2.302;2024-03-25T14:14:16;5.75;;;1.70;;
59846;SDS011;45728;48.788;2.302;2024-03-25T14:16:42;4.35;;;1.70;;
59846;SDS011;45728;48.788;2.302;2024-03-25T14:19:09;3.30;;;1.83;;
59846;SDS011;45728;48.788;2.302;2024-03-25T14:21:35;4.00;;;1.40;;
59846;SDS011;45728;48.788;2.302;2024-03-25T14:24:01;5.65;;;1.60;;
59846;SDS011;45728;48.788;2.302;2024-03-25T14:26:28;2.97;;;1.40;;
59846;SDS011;45728;48.788;2.302;2024-03-25T14:28:54;4.30;;;1.77;;
59846;SDS011;45728;48.788;2.302;2024-03-25T14:31:20;3.38;;;1.75;;
59846;SDS011;45728;48.788;2.302;2024-03-25T14:33:46;3.45;;;1.90;;
59846;SDS011;45728;48.788;2.302;2024-03-25T14:36:12;4.55;;;1.90;;
59846;SDS011;45728;48.788;2.302;2024-03-25T14:38:38;3.42;;;2.08;;
59846;SDS011;45728;48.788;2.302;2024-03-25T14:41:05;3.65;;;2.08;;
59846;SDS011;45728;48.788;2.302;2024-03-25T14:43:31;4.57;;;2.10;;
59846;SDS011;45728;48.788;2.302;2024-03-25T14:45:57;5.35;;;2.30;;
59846;SDS011;45728;48.788;2.302;2024-03-25T14:48:23;6.38;;;2.45;;